createdAt,value
2019-04-05T00:01:33.594Z,23.57
2019-04-05T00:04:35.569Z,24.53
2019-04-05T00:07:37.640Z,23.47
2019-04-05T00:10:40.763Z,23.77
2019-04-05T00:13:42.706Z,21.57
2019-04-05T00:16:44.659Z,23.37
2019-04-05T00:19:47.987Z,23.77
2019-04-05T00:22:49.994Z,23.23
2019-04-05T00:25:51.956Z,22.40
2019-04-05T00:28:53.954Z,24.87
2019-04-05T00:31:55.920Z,23.20
2019-04-05T00:34:57.910Z,23.53
2019-04-05T00:37:59.995Z,23.63
2019-04-05T00:41:02.538Z,23.93
2019-04-05T00:44:04.753Z,25.13
2019-04-05T00:47:06.765Z,24.80
2019-04-05T00:50:09.784Z,27.10
2019-04-05T00:53:11.722Z,25.23
2019-04-05T00:56:13.635Z,26.17
2019-04-05T00:59:15.587Z,26.53
2019-04-05T01:02:17.515Z,27.33
2019-04-05T01:05:19.496Z,25.10
2019-04-05T01:08:21.473Z,29.30
2019-04-05T01:11:23.468Z,26.67
2019-04-05T01:14:26.664Z,28.50
2019-04-05T01:17:28.993Z,26.53
2019-04-05T01:20:34.533Z,27.10
2019-04-05T01:23:36.762Z,29.17
2019-04-05T01:26:40.465Z,28.60
2019-04-05T01:29:43.755Z,27.17
2019-04-05T01:32:46.510Z,27.73
2019-04-05T01:35:48.445Z,26.73
2019-04-05T01:38:50.555Z,29.07
2019-04-05T01:41:52.690Z,27.50
2019-04-05T01:44:54.807Z,27.70
2019-04-05T01:47:56.756Z,29.47
2019-04-05T01:50:58.710Z,28.77
2019-04-05T01:54:00.753Z,29.30
2019-04-05T01:57:02.759Z,27.77
2019-04-05T02:00:08.288Z,27.07
2019-04-05T02:03:10.309Z,28.20
2019-04-05T02:06:12.215Z,27.20
2019-04-05T02:09:14.344Z,27.43
2019-04-05T02:12:16.512Z,29.20
2019-04-05T02:15:24.549Z,28.10
2019-04-05T02:18:26.454Z,28.40
2019-04-05T02:21:28.434Z,29.10
2019-04-05T02:24:31.488Z,29.27
2019-04-05T02:27:33.399Z,29.30
2019-04-05T02:30:35.315Z,29.50
2019-04-05T02:33:38.406Z,30.90
2019-04-05T02:36:40.407Z,29.23
2019-04-05T02:39:42.462Z,30.17
2019-04-05T02:42:48.080Z,28.30
2019-04-05T02:45:51.021Z,28.83
2019-04-05T02:48:53.224Z,29.90
2019-04-05T02:51:57.654Z,29.50
2019-04-05T02:54:59.800Z,28.27
2019-04-05T02:58:03.658Z,29.83
2019-04-05T03:01:05.644Z,28.37
2019-04-05T03:04:08.427Z,27.17
2019-04-05T03:07:12.768Z,27.97
2019-04-05T03:10:53.754Z,25.40
2019-04-05T03:13:59.914Z,24.77
2019-04-05T03:17:03.793Z,25.43
2019-04-05T03:20:06.442Z,26.57
2019-04-05T03:23:09.510Z,26.07
2019-04-05T03:26:15.084Z,25.37
2019-04-05T03:29:17.147Z,26.70
2019-04-05T03:32:19.236Z,25.63
2019-04-05T03:35:21.264Z,23.30
2019-04-05T03:38:23.785Z,23.97
2019-04-05T03:41:26.019Z,25.43
2019-04-05T03:44:28.074Z,25.67
2019-04-05T03:47:30.436Z,23.73
2019-04-05T03:50:32.570Z,27.77
2019-04-05T03:53:34.755Z,25.83
2019-04-05T03:56:38.197Z,25.23
2019-04-05T03:59:40.550Z,26.30
2019-04-05T04:02:42.628Z,26.23
2019-04-05T04:05:44.728Z,26.97
2019-04-05T04:08:46.629Z,25.13
2019-04-05T04:11:48.789Z,27.03
2019-04-05T04:14:50.702Z,26.17
2019-04-05T04:17:53.433Z,26.10
2019-04-05T04:20:59.032Z,25.83
2019-04-05T04:24:01.564Z,25.53
2019-04-05T04:27:03.995Z,26.20
2019-04-05T04:30:06.871Z,25.90
2019-04-05T04:33:09.093Z,26.80
2019-04-05T04:36:13.058Z,26.93
2019-04-05T04:39:15.444Z,26.67
2019-04-05T04:42:18.034Z,26.83
2019-04-05T04:45:20.478Z,27.63
2019-04-05T04:48:23.082Z,27.83
2019-04-05T04:51:25.619Z,27.53
2019-04-05T04:54:27.595Z,29.90
2019-04-05T04:57:30.342Z,28.40
2019-04-05T05:00:33.385Z,29.30
2019-04-05T05:03:35.527Z,29.63
2019-04-05T05:06:37.624Z,30.27
2019-04-05T05:09:39.892Z,29.20
2019-04-05T05:12:42.429Z,28.77
2019-04-05T05:15:44.353Z,28.97
2019-04-05T05:18:46.681Z,29.60
2019-04-05T05:21:49.184Z,29.57
2019-04-05T05:24:52.375Z,27.57
2019-04-05T05:27:54.511Z,29.73
2019-04-05T05:30:58.465Z,30.43
2019-04-05T05:34:00.515Z,29.80
2019-04-05T05:37:02.512Z,30.60
2019-04-05T05:40:06.746Z,31.30
2019-04-05T05:43:08.835Z,30.53
2019-04-05T05:46:10.787Z,31.47
2019-04-05T05:49:12.751Z,29.87
2019-04-05T05:52:15.200Z,29.37
2019-04-05T05:55:17.208Z,27.87
2019-04-05T05:58:19.862Z,28.90
2019-04-05T06:01:21.816Z,30.07
2019-04-05T06:04:23.754Z,28.57
2019-04-05T06:07:25.769Z,27.57
2019-04-05T06:10:27.711Z,27.10
2019-04-05T06:13:29.799Z,29.53
2019-04-05T06:16:31.710Z,29.03
2019-04-05T06:19:33.663Z,28.70
2019-04-05T06:22:36.581Z,28.17
2019-04-05T06:25:38.542Z,28.70
2019-04-05T06:28:40.478Z,30.37
2019-04-05T06:31:42.641Z,27.73
2019-04-05T06:34:44.532Z,27.90
2019-04-05T06:37:46.580Z,27.47
2019-04-05T06:40:48.505Z,26.63
2019-04-05T06:43:50.716Z,26.97
2019-04-05T06:46:52.603Z,26.37
2019-04-05T06:49:54.639Z,25.63
2019-04-05T06:52:56.576Z,24.87
2019-04-05T06:55:59.965Z,26.00
2019-04-05T06:59:03.309Z,25.50
2019-04-05T07:02:05.439Z,24.60
2019-04-05T07:05:08.550Z,24.00
2019-04-05T07:08:11.659Z,23.73
2019-04-05T07:11:13.594Z,23.90
2019-04-05T07:14:15.687Z,25.80
2019-04-05T07:17:17.692Z,25.57
2019-04-05T07:20:19.632Z,24.67
2019-04-05T07:23:21.640Z,23.80
2019-04-05T07:26:23.722Z,22.70
2019-04-05T07:29:25.630Z,29.90
2019-04-05T07:32:27.606Z,27.97
2019-04-05T07:35:33.688Z,26.77
2019-04-05T07:38:34.407Z,29.87
2019-04-05T07:41:36.418Z,29.70
2019-04-05T07:44:38.547Z,28.23
2019-04-05T07:47:40.553Z,27.10
2019-04-05T07:50:42.511Z,26.50
2019-04-05T07:53:44.579Z,26.63
2019-04-05T07:56:46.551Z,25.70
2019-04-05T07:59:48.594Z,25.40
2019-04-05T08:02:50.573Z,22.10
2019-04-05T08:05:52.652Z,21.43
2019-04-05T08:08:58.229Z,20.30
2019-04-05T08:12:00.298Z,20.00
2019-04-05T08:15:04.755Z,17.93
2019-04-05T08:18:06.648Z,18.07
2019-04-05T08:21:08.698Z,18.03
2019-04-05T08:24:10.632Z,17.50
2019-04-05T08:27:13.804Z,17.63
2019-04-05T08:30:15.816Z,17.10
2019-04-05T08:33:17.989Z,18.60
2019-04-05T08:36:19.952Z,17.13
2019-04-05T08:39:21.929Z,17.53
2019-04-05T08:42:23.888Z,16.90
2019-04-05T08:45:25.991Z,16.13
2019-04-05T08:48:27.915Z,17.73
2019-04-05T08:51:29.991Z,17.80
2019-04-05T08:54:35.048Z,17.43
2019-04-05T08:57:35.897Z,17.97
2019-04-05T09:00:37.858Z,17.13
2019-04-05T09:03:39.846Z,15.40
2019-04-05T09:06:42.916Z,15.00
2019-04-05T09:09:44.884Z,13.50
2019-04-05T09:12:46.822Z,13.00
2019-04-05T09:15:48.884Z,13.83
2019-04-05T09:18:50.779Z,14.27
2019-04-05T09:21:52.750Z,15.27
2019-04-05T09:24:54.695Z,15.17
2019-04-05T09:27:56.713Z,14.00
2019-04-05T09:30:59.916Z,16.10
2019-04-05T09:34:01.853Z,11.40
2019-04-05T09:37:03.895Z,12.47
2019-04-05T09:40:06.600Z,12.93
2019-04-05T09:43:08.537Z,11.13
2019-04-05T09:46:10.603Z,11.73
2019-04-05T09:49:12.576Z,10.00
2019-04-05T09:52:15.015Z,11.03
2019-04-05T09:55:17.010Z,9.10
2019-04-05T09:58:19.001Z,9.73
2019-04-05T10:01:20.916Z,9.93
2019-04-05T10:04:22.924Z,9.37
2019-04-05T10:07:24.911Z,9.83
2019-04-05T10:10:27.328Z,9.60
2019-04-05T10:13:29.288Z,8.57
2019-04-05T10:16:31.351Z,9.97
2019-04-05T10:19:33.309Z,8.50
2019-04-05T10:22:35.310Z,9.50
2019-04-05T10:25:37.245Z,8.27
2019-04-05T10:28:39.185Z,8.57
2019-04-05T10:31:41.199Z,9.33
2019-04-05T10:34:43.265Z,8.87
2019-04-05T10:37:45.182Z,8.73
2019-04-05T10:40:47.205Z,7.93
2019-04-05T10:43:50.245Z,8.90
2019-04-05T10:46:52.409Z,9.43
2019-04-05T10:50:02.807Z,8.23
2019-04-05T10:52:58.331Z,9.57
2019-04-05T10:56:00.339Z,9.43
2019-04-05T10:59:02.525Z,9.63
2019-04-05T11:02:04.525Z,7.97
2019-04-05T11:05:06.799Z,8.80
2019-04-05T11:08:08.763Z,7.73
2019-04-05T11:11:10.743Z,9.77
2019-04-05T11:14:14.015Z,10.37
2019-04-05T11:17:16.684Z,9.93
2019-04-05T11:20:21.752Z,7.93
2019-04-05T11:23:24.242Z,8.57
2019-04-05T11:26:26.230Z,8.00
2019-04-05T11:29:28.190Z,7.67
2019-04-05T11:32:30.205Z,7.50
2019-04-05T11:35:32.134Z,9.50
2019-04-05T11:38:34.760Z,8.07
2019-04-05T11:41:36.916Z,7.60
2019-04-05T11:44:41.099Z,7.63
2019-04-05T11:47:43.346Z,7.63
2019-04-05T11:50:45.350Z,7.33
2019-04-05T11:53:47.307Z,8.00
2019-04-05T11:56:49.325Z,8.90
2019-04-05T11:59:51.252Z,8.23
2019-04-05T12:02:58.200Z,8.80
2019-04-05T12:06:00.233Z,9.03
2019-04-05T12:09:04.272Z,9.17
2019-04-05T12:12:06.393Z,10.33
2019-04-05T12:15:08.460Z,9.83
2019-04-05T12:18:10.571Z,8.63
2019-04-05T12:21:12.543Z,9.90
2019-04-05T12:24:14.505Z,9.27
2019-04-05T12:27:16.437Z,10.13
2019-04-05T12:30:23.442Z,9.60
2019-04-05T12:33:25.467Z,10.23
2019-04-05T12:36:27.432Z,8.37
2019-04-05T12:39:29.656Z,9.30
2019-04-05T12:42:31.579Z,8.70
2019-04-05T12:45:33.602Z,8.80
2019-04-05T12:48:35.688Z,9.47
2019-04-05T12:51:37.807Z,8.80
2019-04-05T12:54:39.775Z,9.67
2019-04-05T12:57:41.808Z,10.20
2019-04-05T13:00:43.786Z,8.10
2019-04-05T13:03:45.745Z,9.77
2019-04-05T13:06:47.675Z,8.80
2019-04-05T13:09:53.854Z,8.90
2019-04-05T13:12:56.789Z,7.80
2019-04-05T13:15:59.384Z,7.33
2019-04-05T13:19:01.732Z,8.47
2019-04-05T13:22:03.639Z,9.20
2019-04-05T13:25:06.514Z,7.73
2019-04-05T13:28:13.511Z,7.77
2019-04-05T13:31:12.606Z,8.13
2019-04-05T13:34:14.606Z,9.40
2019-04-05T13:37:20.457Z,8.17
2019-04-05T13:40:21.033Z,8.40
2019-04-05T13:43:23.010Z,8.83
2019-04-05T13:46:26.252Z,7.73
2019-04-05T13:49:28.537Z,8.20
2019-04-05T13:52:30.566Z,9.47
2019-04-05T13:55:32.734Z,8.60
2019-04-05T13:58:34.719Z,6.93
2019-04-05T14:01:36.766Z,9.07
2019-04-05T14:04:38.850Z,8.83
2019-04-05T14:07:40.827Z,7.87
2019-04-05T14:10:42.852Z,7.00
2019-04-05T14:13:44.815Z,6.83
2019-04-05T14:16:46.813Z,8.20
2019-04-05T14:19:49.572Z,9.03
2019-04-05T14:22:53.143Z,8.30
2019-04-05T14:25:59.379Z,9.07
2019-04-05T14:29:03.445Z,8.13
2019-04-05T14:32:19.700Z,7.57
2019-04-05T14:35:08.669Z,7.63
2019-04-05T14:38:11.842Z,9.60
2019-04-05T14:41:14.936Z,8.73
2019-04-05T14:44:16.930Z,8.00
2019-04-05T14:47:19.964Z,7.80
2019-04-05T14:50:22.404Z,8.10
2019-04-05T14:53:24.352Z,7.87
2019-04-05T14:56:26.816Z,8.07
2019-04-05T14:59:32.668Z,8.27
2019-04-05T15:02:34.123Z,8.10
2019-04-05T15:05:36.126Z,8.67
2019-04-05T15:08:38.039Z,8.23
2019-04-05T15:11:40.042Z,7.93
2019-04-05T15:14:42.061Z,8.90
2019-04-05T15:17:48.302Z,8.13
2019-04-05T15:20:48.103Z,8.47
2019-04-05T15:23:50.083Z,8.47
2019-04-05T15:26:52.219Z,8.30
2019-04-05T15:29:55.650Z,8.57
2019-04-05T15:33:00.047Z,9.40
2019-04-05T15:36:03.076Z,8.47
2019-04-05T15:39:07.732Z,10.43
2019-04-05T15:42:11.409Z,9.47
2019-04-05T15:45:16.107Z,10.10
2019-04-05T15:48:17.548Z,11.53
2019-04-05T15:51:19.676Z,9.90
2019-04-05T15:54:21.608Z,10.70
2019-04-05T15:57:23.587Z,11.03
2019-04-05T16:00:33.725Z,12.13
2019-04-05T16:03:37.054Z,9.97
2019-04-05T16:06:39.347Z,9.40
2019-04-05T16:09:41.328Z,9.63
2019-04-05T16:12:43.319Z,9.93
2019-04-05T16:15:45.265Z,11.67
2019-04-05T16:18:47.275Z,11.47
2019-04-05T16:21:49.334Z,10.53
2019-04-05T16:24:51.332Z,10.97
2019-04-05T16:27:53.302Z,12.20
2019-04-05T16:30:55.231Z,10.77
2019-04-05T16:33:57.252Z,12.23
2019-04-05T16:36:59.249Z,10.37
2019-04-05T16:40:01.369Z,11.63
2019-04-05T16:43:05.037Z,10.17
2019-04-05T16:46:06.999Z,10.07
2019-04-05T16:49:08.928Z,10.20
2019-04-05T16:52:11.017Z,8.73
2019-04-05T16:55:13.012Z,9.90
2019-04-05T16:58:15.136Z,7.13
2019-04-05T17:01:27.020Z,18.10
2019-04-05T17:04:21.043Z,28.90
2019-04-05T17:07:23.049Z,32.17
2019-04-05T17:10:24.996Z,8.47
2019-04-05T17:13:26.975Z,374.10
2019-04-05T17:16:28.941Z,397.43
2019-04-05T17:19:31.292Z,403.63
2019-04-05T17:22:33.305Z,94.77
2019-04-05T17:25:35.264Z,682.07
2019-04-05T17:28:37.196Z,482.53
2019-04-05T17:31:39.156Z,358.37
2019-04-05T17:34:42.442Z,100.23
2019-04-05T17:37:44.388Z,291.00
2019-04-05T17:40:46.406Z,236.43
2019-04-05T17:43:50.290Z,289.57
2019-04-05T17:46:52.322Z,423.70
2019-04-05T17:49:54.276Z,47.27
2019-04-05T17:52:56.437Z,238.17
2019-04-05T17:55:59.109Z,246.27
2019-04-05T17:59:02.408Z,153.87
2019-04-05T18:02:04.465Z,379.87
2019-04-05T18:05:07.318Z,331.00
2019-04-05T18:08:09.743Z,279.20
2019-04-05T18:11:12.923Z,57.60
2019-04-05T18:14:14.855Z,231.23
2019-04-05T18:17:16.762Z,465.97
2019-04-05T18:20:18.897Z,444.87
2019-04-05T18:23:25.388Z,53.77
2019-04-05T18:26:26.210Z,380.37
2019-04-05T18:29:28.222Z,305.13
2019-04-05T18:32:31.371Z,313.33
2019-04-05T18:35:33.533Z,241.80
2019-04-05T18:38:35.617Z,452.47
2019-04-05T18:41:37.581Z,94.33
2019-04-05T18:44:40.244Z,40.23
2019-04-05T18:47:42.190Z,18.00
2019-04-05T18:50:48.570Z,15.53
2019-04-05T18:53:52.954Z,34.97
2019-04-05T18:56:57.877Z,41.33
2019-04-05T18:59:59.834Z,16.57
2019-04-05T19:03:02.080Z,12.33
2019-04-05T19:06:04.575Z,14.10
2019-04-05T19:09:11.589Z,14.83
2019-04-05T19:12:14.681Z,39.63
2019-04-05T19:15:18.039Z,108.60
2019-04-05T19:18:21.599Z,277.70
2019-04-05T19:21:23.730Z,34.77
2019-04-05T19:24:25.809Z,22.70
2019-04-05T19:27:30.550Z,20.53
2019-04-05T19:48:59.764Z,18.27
2019-04-05T19:52:03.605Z,23.50
2019-04-05T19:55:06.981Z,57.37
2019-04-05T19:58:09.229Z,85.43
2019-04-05T20:01:13.019Z,17.17
2019-04-05T20:04:15.003Z,16.40
2019-04-05T20:07:16.982Z,55.93
2019-04-05T20:10:21.030Z,113.33
2019-04-05T20:13:23.329Z,25.17
2019-04-05T20:16:28.619Z,17.53
2019-04-05T20:19:30.934Z,16.67
2019-04-05T20:22:32.909Z,15.60
2019-04-05T20:25:34.922Z,15.50
2019-04-05T20:28:36.972Z,16.53
2019-04-05T20:31:38.925Z,15.73
2019-04-05T20:34:40.957Z,16.83
2019-04-05T20:37:42.979Z,16.40
2019-04-05T20:40:44.937Z,15.87
2019-04-05T20:43:46.928Z,16.80
2019-04-05T20:46:48.840Z,17.03
2019-04-05T20:49:50.783Z,17.90
2019-04-05T20:52:52.795Z,16.43
2019-04-05T20:55:54.998Z,17.93
2019-04-05T20:58:56.945Z,17.73
2019-04-05T21:01:58.921Z,19.03
2019-04-05T21:05:00.914Z,18.17
2019-04-05T21:08:02.859Z,20.37
2019-04-05T21:11:04.870Z,28.33
2019-04-05T21:14:06.795Z,31.10
2019-04-05T21:17:08.801Z,23.70
2019-04-05T21:20:11.322Z,25.40
2019-04-05T21:23:14.448Z,24.53
2019-04-05T21:26:17.606Z,22.07
2019-04-05T21:29:19.575Z,23.93
2019-04-05T21:32:21.570Z,29.07
2019-04-05T21:35:23.508Z,29.73
2019-04-05T21:38:25.433Z,28.10
2019-04-05T21:41:27.371Z,27.07
2019-04-05T21:44:29.371Z,25.13
2019-04-05T21:47:31.266Z,31.37
2019-04-05T21:50:33.228Z,29.47
2019-04-05T21:53:35.145Z,25.47
2019-04-05T21:56:37.312Z,24.57
2019-04-05T21:59:39.309Z,24.77
2019-04-05T22:02:41.448Z,23.13
2019-04-05T22:05:43.399Z,25.50
2019-04-05T22:08:45.348Z,25.70
2019-04-05T22:11:47.319Z,25.03
2019-04-05T22:14:49.384Z,24.87
2019-04-05T22:17:51.323Z,26.63
2019-04-05T22:20:53.837Z,30.57
2019-04-05T22:23:55.875Z,27.93
2019-04-05T22:26:57.925Z,34.23
2019-04-05T22:30:01.384Z,38.10
2019-04-05T22:33:03.376Z,29.20
2019-04-05T22:36:05.315Z,25.27
2019-04-05T22:39:07.294Z,27.30
2019-04-05T22:42:09.799Z,24.70
2019-04-05T22:45:11.716Z,24.47
2019-04-05T22:48:13.755Z,23.13
2019-04-05T22:51:15.703Z,22.93
2019-04-05T22:54:18.023Z,24.33
2019-04-05T22:57:20.401Z,26.60
2019-04-05T23:00:22.575Z,27.10
2019-04-05T23:03:24.605Z,27.13
2019-04-05T23:06:26.625Z,24.77
2019-04-05T23:09:28.722Z,27.27
2019-04-05T23:12:30.761Z,24.27
2019-04-05T23:15:32.711Z,25.73
2019-04-05T23:18:34.703Z,26.60
2019-04-05T23:21:36.580Z,25.83
2019-04-05T23:24:38.501Z,24.87
2019-04-05T23:27:40.533Z,24.17
2019-04-05T23:30:43.425Z,26.27
2019-04-05T23:33:45.375Z,26.73
2019-04-05T23:36:47.341Z,25.90
2019-04-05T23:39:49.345Z,24.33
2019-04-05T23:42:51.277Z,25.47
2019-04-05T23:45:53.225Z,28.93
2019-04-05T23:48:55.233Z,24.57
2019-04-05T23:51:57.244Z,26.37
2019-04-05T23:54:59.303Z,26.37
2019-04-05T23:58:01.351Z,26.13
